sensor_id;sensor_type;location;lat;lon;timestamp;P1;durP1;ratioP1;P2;durP2;ratioP2
67930;SDS011;63902;52.000;5.954;2024-01-06T00:00:42;12.32;;;6.70;;
67930;SDS011;63902;52.000;5.954;2024-01-06T00:01:42;13.02;;;7.40;;
67930;SDS011;63902;52.000;5.954;2024-01-06T00:02:42;12.60;;;6.80;;
67930;SDS011;63902;52.000;5.954;2024-01-06T00:03:43;12.70;;;7.65;;
67930;SDS011;63902;52.000;5.954;2024-01-06T00:04:43;13.70;;;7.25;;
67930;SDS011;63902;52.000;5.954;2024-01-06T00:05:44;11.43;;;6.80;;
67930;SDS011;63902;52.000;5.954;2024-01-06T00:06:44;13.57;;;7.15;;
67930;SDS011;63902;52.000;5.954;2024-01-06T00:07:45;12.60;;;6.95;;
67930;SDS011;63902;52.000;5.954;2024-01-06T00:08:46;12.23;;;6.93;;
67930;SDS011;63902;52.000;5.954;2024-01-06T00:09:46;12.77;;;7.50;;
67930;SDS011;63902;52.000;5.954;2024-01-06T00:10:47;15.00;;;7.55;;
67930;SDS011;63902;52.000;5.954;2024-01-06T00:11:49;10.68;;;7.05;;
67930;SDS011;63902;52.000;5.954;2024-01-06T00:12:49;12.70;;;6.90;;
67930;SDS011;63902;52.000;5.954;2024-01-06T00:13:51;12.77;;;7.03;;
67930;SDS011;63902;52.000;5.954;2024-01-06T00:14:52;10.98;;;6.68;;
67930;SDS011;63902;52.000;5.954;2024-01-06T00:15:52;11.85;;;7.03;;
67930;SDS011;63902;52.000;5.954;2024-01-06T00:16:53;14.43;;;7.07;;
67930;SDS011;63902;52.000;5.954;2024-01-06T00:17:53;11.32;;;6.82;;
67930;SDS011;63902;52.000;5.954;2024-01-06T00:18:54;11.25;;;7.00;;
67930;SDS011;63902;52.000;5.954;2024-01-06T00:19:54;11.63;;;6.78;;
67930;SDS011;63902;52.000;5.954;2024-01-06T00:20:55;12.85;;;6.90;;
67930;SDS011;63902;52.000;5.954;2024-01-06T00:21:55;10.48;;;6.88;;
67930;SDS011;63902;52.000;5.954;2024-01-06T00:22:56;11.50;;;6.68;;
67930;SDS011;63902;52.000;5.954;2024-01-06T00:23:56;12.20;;;6.57;;
67930;SDS011;63902;52.000;5.954;2024-01-06T00:24:57;9.90;;;6.18;;
67930;SDS011;63902;52.000;5.954;2024-01-06T00:25:57;15.63;;;7.22;;
67930;SDS011;63902;52.000;5.954;2024-01-06T00:26:58;10.63;;;6.03;;
67930;SDS011;63902;52.000;5.954;2024-01-06T00:27:58;11.25;;;6.45;;
67930;SDS011;63902;52.000;5.954;2024-01-06T00:29:00;12.05;;;7.28;;
67930;SDS011;63902;52.000;5.954;2024-01-06T00:30:00;10.73;;;6.53;;
67930;SDS011;63902;52.000;5.954;2024-01-06T00:31:01;10.85;;;6.65;;
67930;SDS011;63902;52.000;5.954;2024-01-06T00:32:02;12.98;;;7.25;;
67930;SDS011;63902;52.000;5.954;2024-01-06T00:33:03;10.52;;;6.20;;
67930;SDS011;63902;52.000;5.954;2024-01-06T00:34:03;13.70;;;7.40;;
67930;SDS011;63902;52.000;5.954;2024-01-06T00:35:04;10.82;;;6.70;;
67930;SDS011;63902;52.000;5.954;2024-01-06T00:36:06;11.13;;;6.13;;
67930;SDS011;63902;52.000;5.954;2024-01-06T00:37:07;10.43;;;6.30;;
67930;SDS011;63902;52.000;5.954;2024-01-06T00:38:07;10.50;;;6.18;;
67930;SDS011;63902;52.000;5.954;2024-01-06T00:39:08;8.65;;;5.53;;
67930;SDS011;63902;52.000;5.954;2024-01-06T00:40:09;8.45;;;5.70;;
67930;SDS011;63902;52.000;5.954;2024-01-06T00:41:10;11.50;;;6.57;;
67930;SDS011;63902;52.000;5.954;2024-01-06T00:42:10;10.43;;;6.30;;
67930;SDS011;63902;52.000;5.954;2024-01-06T00:43:11;10.45;;;6.47;;
67930;SDS011;63902;52.000;5.954;2024-01-06T00:44:12;9.80;;;5.88;;
67930;SDS011;63902;52.000;5.954;2024-01-06T00:45:13;9.40;;;6.00;;
67930;SDS011;63902;52.000;5.954;2024-01-06T00:46:13;10.68;;;5.68;;
67930;SDS011;63902;52.000;5.954;2024-01-06T00:47:14;11.18;;;6.47;;
67930;SDS011;63902;52.000;5.954;2024-01-06T00:48:14;10.40;;;6.43;;
67930;SDS011;63902;52.000;5.954;2024-01-06T00:49:15;12.35;;;6.32;;
67930;SDS011;63902;52.000;5.954;2024-01-06T00:50:15;10.30;;;6.28;;
67930;SDS011;63902;52.000;5.954;2024-01-06T00:51:17;10.13;;;6.53;;
67930;SDS011;63902;52.000;5.954;2024-01-06T00:52:18;10.73;;;6.75;;
67930;SDS011;63902;52.000;5.954;2024-01-06T00:53:18;10.43;;;6.13;;
67930;SDS011;63902;52.000;5.954;2024-01-06T00:54:19;10.32;;;5.93;;
67930;SDS011;63902;52.000;5.954;2024-01-06T00:55:19;12.68;;;6.53;;
67930;SDS011;63902;52.000;5.954;2024-01-06T00:56:20;11.45;;;6.45;;
67930;SDS011;63902;52.000;5.954;2024-01-06T00:57:20;9.88;;;5.93;;
67930;SDS011;63902;52.000;5.954;2024-01-06T00:58:21;10.95;;;6.40;;
67930;SDS011;63902;52.000;5.954;2024-01-06T00:59:22;9.63;;;6.07;;
67930;SDS011;63902;52.000;5.954;2024-01-06T01:00:23;10.70;;;6.93;;
67930;SDS011;63902;52.000;5.954;2024-01-06T01:01:23;10.07;;;6.50;;
67930;SDS011;63902;52.000;5.954;2024-01-06T01:02:24;12.13;;;6.85;;
67930;SDS011;63902;52.000;5.954;2024-01-06T01:03:24;11.55;;;6.05;;
67930;SDS011;63902;52.000;5.954;2024-01-06T01:04:25;10.50;;;6.25;;
67930;SDS011;63902;52.000;5.954;2024-01-06T01:05:25;11.15;;;6.68;;
67930;SDS011;63902;52.000;5.954;2024-01-06T01:06:26;9.93;;;6.32;;
67930;SDS011;63902;52.000;5.954;2024-01-06T01:07:26;11.20;;;6.30;;
67930;SDS011;63902;52.000;5.954;2024-01-06T01:08:27;10.82;;;6.47;;
67930;SDS011;63902;52.000;5.954;2024-01-06T01:09:27;11.75;;;6.55;;
67930;SDS011;63902;52.000;5.954;2024-01-06T01:10:27;12.13;;;6.88;;
67930;SDS011;63902;52.000;5.954;2024-01-06T01:11:28;11.35;;;6.93;;
67930;SDS011;63902;52.000;5.954;2024-01-06T01:12:28;12.00;;;6.57;;
67930;SDS011;63902;52.000;5.954;2024-01-06T01:13:29;11.32;;;7.00;;
67930;SDS011;63902;52.000;5.954;2024-01-06T01:14:31;12.88;;;7.13;;
67930;SDS011;63902;52.000;5.954;2024-01-06T01:15:31;11.63;;;6.93;;
67930;SDS011;63902;52.000;5.954;2024-01-06T01:16:32;9.18;;;5.90;;
67930;SDS011;63902;52.000;5.954;2024-01-06T01:17:32;11.40;;;6.22;;
67930;SDS011;63902;52.000;5.954;2024-01-06T01:18:33;11.05;;;6.75;;
67930;SDS011;63902;52.000;5.954;2024-01-06T01:19:33;11.48;;;6.72;;
67930;SDS011;63902;52.000;5.954;2024-01-06T01:20:34;13.57;;;8.07;;
67930;SDS011;63902;52.000;5.954;2024-01-06T01:21:34;11.15;;;6.40;;
67930;SDS011;63902;52.000;5.954;2024-01-06T01:22:34;12.35;;;6.80;;
67930;SDS011;63902;52.000;5.954;2024-01-06T01:23:35;10.85;;;6.75;;
67930;SDS011;63902;52.000;5.954;2024-01-06T01:24:35;8.93;;;6.07;;
67930;SDS011;63902;52.000;5.954;2024-01-06T01:25:36;11.00;;;6.47;;
67930;SDS011;63902;52.000;5.954;2024-01-06T01:26:36;10.77;;;6.50;;
67930;SDS011;63902;52.000;5.954;2024-01-06T01:27:37;12.95;;;7.10;;
67930;SDS011;63902;52.000;5.954;2024-01-06T01:28:37;10.57;;;6.55;;
67930;SDS011;63902;52.000;5.954;2024-01-06T01:29:39;10.88;;;6.38;;
67930;SDS011;63902;52.000;5.954;2024-01-06T01:30:40;12.63;;;7.15;;
67930;SDS011;63902;52.000;5.954;2024-01-06T01:31:40;11.50;;;6.80;;
67930;SDS011;63902;52.000;5.954;2024-01-06T01:32:41;10.18;;;6.45;;
67930;SDS011;63902;52.000;5.954;2024-01-06T01:33:41;13.20;;;7.85;;
67930;SDS011;63902;52.000;5.954;2024-01-06T01:34:41;13.40;;;7.43;;
67930;SDS011;63902;52.000;5.954;2024-01-06T01:35:42;10.75;;;7.00;;
67930;SDS011;63902;52.000;5.954;2024-01-06T01:36:42;12.23;;;7.20;;
67930;SDS011;63902;52.000;5.954;2024-01-06T01:37:43;11.98;;;7.05;;
67930;SDS011;63902;52.000;5.954;2024-01-06T01:38:43;11.20;;;6.75;;
67930;SDS011;63902;52.000;5.954;2024-01-06T01:39:44;10.38;;;6.65;;
67930;SDS011;63902;52.000;5.954;2024-01-06T01:40:44;13.05;;;6.95;;
67930;SDS011;63902;52.000;5.954;2024-01-06T01:41:45;10.77;;;6.20;;
67930;SDS011;63902;52.000;5.954;2024-01-06T01:42:45;10.93;;;6.53;;
67930;SDS011;63902;52.000;5.954;2024-01-06T01:43:46;15.63;;;6.50;;
67930;SDS011;63902;52.000;5.954;2024-01-06T01:44:48;11.75;;;6.70;;
67930;SDS011;63902;52.000;5.954;2024-01-06T01:45:53;12.15;;;6.82;;
67930;SDS011;63902;52.000;5.954;2024-01-06T01:46:54;11.75;;;6.47;;
67930;SDS011;63902;52.000;5.954;2024-01-06T01:47:54;11.95;;;7.28;;
67930;SDS011;63902;52.000;5.954;2024-01-06T01:48:55;11.63;;;6.32;;
67930;SDS011;63902;52.000;5.954;2024-01-06T01:49:57;11.85;;;6.72;;
67930;SDS011;63902;52.000;5.954;2024-01-06T01:50:58;9.98;;;6.75;;
67930;SDS011;63902;52.000;5.954;2024-01-06T01:51:58;11.95;;;7.03;;
67930;SDS011;63902;52.000;5.954;2024-01-06T01:52:59;12.93;;;7.10;;
67930;SDS011;63902;52.000;5.954;2024-01-06T01:54:01;11.40;;;6.97;;
67930;SDS011;63902;52.000;5.954;2024-01-06T01:55:02;14.02;;;7.30;;
67930;SDS011;63902;52.000;5.954;2024-01-06T01:56:03;12.07;;;7.18;;
67930;SDS011;63902;52.000;5.954;2024-01-06T01:57:04;12.65;;;7.75;;
67930;SDS011;63902;52.000;5.954;2024-01-06T01:58:04;13.25;;;8.10;;
67930;SDS011;63902;52.000;5.954;2024-01-06T01:59:06;14.73;;;7.57;;
67930;SDS011;63902;52.000;5.954;2024-01-06T02:00:13;13.95;;;7.18;;
67930;SDS011;63902;52.000;5.954;2024-01-06T02:01:14;12.15;;;7.03;;
67930;SDS011;63902;52.000;5.954;2024-01-06T02:02:16;11.50;;;7.72;;
67930;SDS011;63902;52.000;5.954;2024-01-06T02:03:16;16.55;;;7.70;;
67930;SDS011;63902;52.000;5.954;2024-01-06T02:04:17;12.30;;;7.45;;
67930;SDS011;63902;52.000;5.954;2024-01-06T02:05:17;12.65;;;7.63;;
67930;SDS011;63902;52.000;5.954;2024-01-06T02:06:18;12.85;;;7.18;;
67930;SDS011;63902;52.000;5.954;2024-01-06T02:07:18;13.63;;;7.95;;
67930;SDS011;63902;52.000;5.954;2024-01-06T02:08:19;12.75;;;7.78;;
67930;SDS011;63902;52.000;5.954;2024-01-06T02:09:19;14.45;;;7.90;;
67930;SDS011;63902;52.000;5.954;2024-01-06T02:10:20;13.85;;;7.45;;
67930;SDS011;63902;52.000;5.954;2024-01-06T02:11:20;14.73;;;8.00;;
67930;SDS011;63902;52.000;5.954;2024-01-06T02:12:21;14.65;;;7.80;;
67930;SDS011;63902;52.000;5.954;2024-01-06T02:13:22;13.85;;;7.88;;
67930;SDS011;63902;52.000;5.954;2024-01-06T02:14:22;15.80;;;8.20;;
67930;SDS011;63902;52.000;5.954;2024-01-06T02:15:24;14.45;;;8.90;;
67930;SDS011;63902;52.000;5.954;2024-01-06T02:16:25;13.50;;;7.82;;
67930;SDS011;63902;52.000;5.954;2024-01-06T02:17:25;14.65;;;8.30;;
67930;SDS011;63902;52.000;5.954;2024-01-06T02:18:25;15.25;;;8.15;;
67930;SDS011;63902;52.000;5.954;2024-01-06T02:19:26;14.27;;;8.38;;
67930;SDS011;63902;52.000;5.954;2024-01-06T02:20:26;15.25;;;8.25;;
67930;SDS011;63902;52.000;5.954;2024-01-06T02:21:30;14.88;;;8.23;;
67930;SDS011;63902;52.000;5.954;2024-01-06T02:22:33;17.13;;;8.88;;
67930;SDS011;63902;52.000;5.954;2024-01-06T02:23:35;13.80;;;8.15;;
67930;SDS011;63902;52.000;5.954;2024-01-06T02:24:36;16.17;;;8.52;;
67930;SDS011;63902;52.000;5.954;2024-01-06T02:25:37;15.50;;;8.40;;
67930;SDS011;63902;52.000;5.954;2024-01-06T02:26:37;18.67;;;9.23;;
67930;SDS011;63902;52.000;5.954;2024-01-06T02:27:38;14.48;;;8.50;;
67930;SDS011;63902;52.000;5.954;2024-01-06T02:28:38;14.52;;;8.00;;
67930;SDS011;63902;52.000;5.954;2024-01-06T02:29:39;13.85;;;8.23;;
67930;SDS011;63902;52.000;5.954;2024-01-06T02:30:39;14.90;;;9.20;;
67930;SDS011;63902;52.000;5.954;2024-01-06T02:31:40;16.58;;;9.52;;
67930;SDS011;63902;52.000;5.954;2024-01-06T02:32:40;16.45;;;9.80;;
67930;SDS011;63902;52.000;5.954;2024-01-06T02:33:41;17.02;;;8.98;;
67930;SDS011;63902;52.000;5.954;2024-01-06T02:34:41;18.10;;;8.90;;
67930;SDS011;63902;52.000;5.954;2024-01-06T02:35:42;13.82;;;8.38;;
67930;SDS011;63902;52.000;5.954;2024-01-06T02:36:42;16.38;;;9.27;;
67930;SDS011;63902;52.000;5.954;2024-01-06T02:37:44;15.65;;;9.15;;
67930;SDS011;63902;52.000;5.954;2024-01-06T02:38:44;16.95;;;9.18;;
67930;SDS011;63902;52.000;5.954;2024-01-06T02:39:45;17.80;;;8.70;;
67930;SDS011;63902;52.000;5.954;2024-01-06T02:40:46;14.77;;;8.18;;
67930;SDS011;63902;52.000;5.954;2024-01-06T02:41:46;15.13;;;8.70;;
67930;SDS011;63902;52.000;5.954;2024-01-06T02:42:47;18.33;;;8.90;;
67930;SDS011;63902;52.000;5.954;2024-01-06T02:43:47;14.63;;;8.63;;
67930;SDS011;63902;52.000;5.954;2024-01-06T02:44:48;16.15;;;9.20;;
67930;SDS011;63902;52.000;5.954;2024-01-06T02:45:48;18.70;;;9.40;;
67930;SDS011;63902;52.000;5.954;2024-01-06T02:46:49;20.48;;;10.27;;
67930;SDS011;63902;52.000;5.954;2024-01-06T02:47:49;17.48;;;9.02;;
67930;SDS011;63902;52.000;5.954;2024-01-06T02:48:50;19.70;;;9.80;;
67930;SDS011;63902;52.000;5.954;2024-01-06T02:49:50;15.63;;;9.30;;
67930;SDS011;63902;52.000;5.954;2024-01-06T02:50:51;17.63;;;8.70;;
67930;SDS011;63902;52.000;5.954;2024-01-06T02:51:51;18.83;;;9.73;;
67930;SDS011;63902;52.000;5.954;2024-01-06T02:52:53;22.48;;;10.07;;
67930;SDS011;63902;52.000;5.954;2024-01-06T02:53:54;17.77;;;9.98;;
67930;SDS011;63902;52.000;5.954;2024-01-06T02:54:54;17.00;;;10.07;;
67930;SDS011;63902;52.000;5.954;2024-01-06T02:55:55;16.38;;;9.35;;
67930;SDS011;63902;52.000;5.954;2024-01-06T02:56:55;16.20;;;10.05;;
67930;SDS011;63902;52.000;5.954;2024-01-06T02:57:56;16.50;;;9.25;;
67930;SDS011;63902;52.000;5.954;2024-01-06T02:58:56;16.00;;;9.18;;
67930;SDS011;63902;52.000;5.954;2024-01-06T02:59:57;17.98;;;9.75;;
67930;SDS011;63902;52.000;5.954;2024-01-06T03:00:57;15.25;;;8.90;;
67930;SDS011;63902;52.000;5.954;2024-01-06T03:01:58;16.15;;;9.32;;
67930;SDS011;63902;52.000;5.954;2024-01-06T03:02:58;15.80;;;9.32;;
67930;SDS011;63902;52.000;5.954;2024-01-06T03:03:59;14.60;;;8.85;;
67930;SDS011;63902;52.000;5.954;2024-01-06T03:04:59;15.30;;;8.30;;
67930;SDS011;63902;52.000;5.954;2024-01-06T03:05:59;12.90;;;8.18;;
67930;SDS011;63902;52.000;5.954;2024-01-06T03:07:00;13.50;;;8.32;;
67930;SDS011;63902;52.000;5.954;2024-01-06T03:08:02;14.23;;;8.32;;
67930;SDS011;63902;52.000;5.954;2024-01-06T03:09:03;13.93;;;8.20;;
67930;SDS011;63902;52.000;5.954;2024-01-06T03:10:03;15.48;;;8.95;;
67930;SDS011;63902;52.000;5.954;2024-01-06T03:11:04;16.75;;;9.13;;
67930;SDS011;63902;52.000;5.954;2024-01-06T03:12:05;16.02;;;8.85;;
67930;SDS011;63902;52.000;5.954;2024-01-06T03:13:06;16.42;;;9.32;;
67930;SDS011;63902;52.000;5.954;2024-01-06T03:14:06;15.00;;;9.27;;
67930;SDS011;63902;52.000;5.954;2024-01-06T03:15:07;16.67;;;8.70;;
67930;SDS011;63902;52.000;5.954;2024-01-06T03:16:08;16.95;;;8.43;;
67930;SDS011;63902;52.000;5.954;2024-01-06T03:17:11;19.52;;;9.15;;
67930;SDS011;63902;52.000;5.954;2024-01-06T03:18:12;16.20;;;8.90;;
67930;SDS011;63902;52.000;5.954;2024-01-06T03:19:12;15.82;;;9.52;;
67930;SDS011;63902;52.000;5.954;2024-01-06T03:20:16;13.90;;;9.18;;
67930;SDS011;63902;52.000;5.954;2024-01-06T03:21:16;16.10;;;9.00;;
67930;SDS011;63902;52.000;5.954;2024-01-06T03:22:17;16.08;;;8.95;;
67930;SDS011;63902;52.000;5.954;2024-01-06T03:23:19;17.27;;;9.80;;
67930;SDS011;63902;52.000;5.954;2024-01-06T03:24:21;17.55;;;8.77;;
67930;SDS011;63902;52.000;5.954;2024-01-06T03:25:24;16.35;;;9.55;;
67930;SDS011;63902;52.000;5.954;2024-01-06T03:26:24;12.27;;;8.20;;
67930;SDS011;63902;52.000;5.954;2024-01-06T03:27:25;17.40;;;8.98;;
67930;SDS011;63902;52.000;5.954;2024-01-06T03:28:25;14.40;;;8.70;;
67930;SDS011;63902;52.000;5.954;2024-01-06T03:29:26;17.05;;;9.63;;
67930;SDS011;63902;52.000;5.954;2024-01-06T03:30:26;16.98;;;8.95;;
67930;SDS011;63902;52.000;5.954;2024-01-06T03:31:27;14.00;;;8.43;;
67930;SDS011;63902;52.000;5.954;2024-01-06T03:32:27;16.13;;;9.35;;
67930;SDS011;63902;52.000;5.954;2024-01-06T03:33:27;14.10;;;7.63;;
67930;SDS011;63902;52.000;5.954;2024-01-06T03:34:28;15.15;;;8.50;;
67930;SDS011;63902;52.000;5.954;2024-01-06T03:35:28;15.88;;;8.98;;
67930;SDS011;63902;52.000;5.954;2024-01-06T03:36:29;16.35;;;8.15;;
67930;SDS011;63902;52.000;5.954;2024-01-06T03:37:29;15.20;;;9.00;;
67930;SDS011;63902;52.000;5.954;2024-01-06T03:38:31;12.60;;;7.93;;
67930;SDS011;63902;52.000;5.954;2024-01-06T03:39:32;19.60;;;8.77;;
67930;SDS011;63902;52.000;5.954;2024-01-06T03:40:32;12.43;;;7.97;;
67930;SDS011;63902;52.000;5.954;2024-01-06T03:41:33;12.43;;;7.75;;
67930;SDS011;63902;52.000;5.954;2024-01-06T03:42:33;14.02;;;7.80;;
67930;SDS011;63902;52.000;5.954;2024-01-06T03:43:34;14.05;;;7.82;;
67930;SDS011;63902;52.000;5.954;2024-01-06T03:44:34;14.63;;;8.55;;
67930;SDS011;63902;52.000;5.954;2024-01-06T03:45:35;14.95;;;7.80;;
67930;SDS011;63902;52.000;5.954;2024-01-06T03:46:35;13.50;;;8.35;;
67930;SDS011;63902;52.000;5.954;2024-01-06T03:47:36;13.48;;;8.02;;
67930;SDS011;63902;52.000;5.954;2024-01-06T03:48:36;15.73;;;8.20;;
67930;SDS011;63902;52.000;5.954;2024-01-06T03:49:37;13.32;;;7.72;;
67930;SDS011;63902;52.000;5.954;2024-01-06T03:50:37;16.30;;;9.30;;
67930;SDS011;63902;52.000;5.954;2024-01-06T03:51:37;14.52;;;7.65;;
67930;SDS011;63902;52.000;5.954;2024-01-06T03:52:38;15.13;;;8.90;;
67930;SDS011;63902;52.000;5.954;2024-01-06T03:53:40;19.92;;;8.93;;
67930;SDS011;63902;52.000;5.954;2024-01-06T03:54:40;16.27;;;8.25;;
67930;SDS011;63902;52.000;5.954;2024-01-06T03:55:41;15.45;;;8.15;;
67930;SDS011;63902;52.000;5.954;2024-01-06T03:56:41;14.00;;;8.20;;
67930;SDS011;63902;52.000;5.954;2024-01-06T03:57:42;17.08;;;9.23;;
67930;SDS011;63902;52.000;5.954;2024-01-06T03:58:42;15.48;;;8.77;;
67930;SDS011;63902;52.000;5.954;2024-01-06T03:59:43;14.40;;;8.35;;
67930;SDS011;63902;52.000;5.954;2024-01-06T04:00:43;14.60;;;8.30;;
67930;SDS011;63902;52.000;5.954;2024-01-06T04:01:43;14.25;;;8.23;;
67930;SDS011;63902;52.000;5.954;2024-01-06T04:02:44;16.30;;;8.93;;
67930;SDS011;63902;52.000;5.954;2024-01-06T04:03:44;18.05;;;9.23;;
67930;SDS011;63902;52.000;5.954;2024-01-06T04:04:45;17.77;;;9.27;;
67930;SDS011;63902;52.000;5.954;2024-01-06T04:05:45;15.93;;;9.00;;
67930;SDS011;63902;52.000;5.954;2024-01-06T04:06:46;15.35;;;8.35;;
67930;SDS011;63902;52.000;5.954;2024-01-06T04:07:46;17.70;;;10.10;;
67930;SDS011;63902;52.000;5.954;2024-01-06T04:08:48;18.17;;;9.60;;
67930;SDS011;63902;52.000;5.954;2024-01-06T04:09:48;18.38;;;10.05;;
67930;SDS011;63902;52.000;5.954;2024-01-06T04:10:49;17.30;;;9.38;;
67930;SDS011;63902;52.000;5.954;2024-01-06T04:11:49;16.58;;;9.18;;
67930;SDS011;63902;52.000;5.954;2024-01-06T04:12:50;15.25;;;9.25;;
67930;SDS011;63902;52.000;5.954;2024-01-06T04:13:50;18.02;;;10.35;;
67930;SDS011;63902;52.000;5.954;2024-01-06T04:14:51;26.83;;;8.88;;
67930;SDS011;63902;52.000;5.954;2024-01-06T04:15:51;15.30;;;9.43;;
67930;SDS011;63902;52.000;5.954;2024-01-06T04:16:52;17.23;;;9.65;;
67930;SDS011;63902;52.000;5.954;2024-01-06T04:17:52;17.92;;;9.48;;
67930;SDS011;63902;52.000;5.954;2024-01-06T04:18:54;17.10;;;9.52;;
67930;SDS011;63902;52.000;5.954;2024-01-06T04:19:55;15.07;;;8.75;;
67930;SDS011;63902;52.000;5.954;2024-01-06T04:20:55;16.38;;;9.48;;
67930;SDS011;63902;52.000;5.954;2024-01-06T04:21:55;17.75;;;9.23;;
67930;SDS011;63902;52.000;5.954;2024-01-06T04:22:56;16.80;;;8.77;;
67930;SDS011;63902;52.000;5.954;2024-01-06T04:23:58;14.32;;;8.68;;
67930;SDS011;63902;52.000;5.954;2024-01-06T04:24:58;18.00;;;9.05;;
67930;SDS011;63902;52.000;5.954;2024-01-06T04:25:59;13.40;;;8.30;;
67930;SDS011;63902;52.000;5.954;2024-01-06T04:26:59;13.43;;;8.05;;
67930;SDS011;63902;52.000;5.954;2024-01-06T04:28:00;15.38;;;9.10;;
67930;SDS011;63902;52.000;5.954;2024-01-06T04:29:00;16.83;;;9.23;;
67930;SDS011;63902;52.000;5.954;2024-01-06T04:30:00;18.02;;;9.38;;
67930;SDS011;63902;52.000;5.954;2024-01-06T04:31:01;13.48;;;8.88;;
67930;SDS011;63902;52.000;5.954;2024-01-06T04:32:02;18.00;;;9.15;;
67930;SDS011;63902;52.000;5.954;2024-01-06T04:33:02;17.05;;;10.45;;
67930;SDS011;63902;52.000;5.954;2024-01-06T04:34:03;17.13;;;9.55;;
67930;SDS011;63902;52.000;5.954;2024-01-06T04:35:04;17.00;;;8.80;;
67930;SDS011;63902;52.000;5.954;2024-01-06T04:36:06;19.42;;;10.23;;
67930;SDS011;63902;52.000;5.954;2024-01-06T04:37:07;14.57;;;9.20;;
67930;SDS011;63902;52.000;5.954;2024-01-06T04:38:07;16.80;;;8.93;;
67930;SDS011;63902;52.000;5.954;2024-01-06T04:39:09;19.33;;;9.38;;
67930;SDS011;63902;52.000;5.954;2024-01-06T04:40:10;17.65;;;9.88;;
67930;SDS011;63902;52.000;5.954;2024-01-06T04:41:11;16.23;;;9.65;;
67930;SDS011;63902;52.000;5.954;2024-01-06T04:42:12;18.27;;;10.35;;
67930;SDS011;63902;52.000;5.954;2024-01-06T04:43:12;15.75;;;9.52;;
67930;SDS011;63902;52.000;5.954;2024-01-06T04:44:12;19.17;;;10.25;;
67930;SDS011;63902;52.000;5.954;2024-01-06T04:45:13;17.38;;;10.30;;
67930;SDS011;63902;52.000;5.954;2024-01-06T04:46:13;16.38;;;9.77;;
67930;SDS011;63902;52.000;5.954;2024-01-06T04:47:14;16.98;;;10.00;;
67930;SDS011;63902;52.000;5.954;2024-01-06T04:48:14;18.08;;;8.93;;
67930;SDS011;63902;52.000;5.954;2024-01-06T04:49:15;17.40;;;9.95;;
67930;SDS011;63902;52.000;5.954;2024-01-06T04:50:15;15.60;;;9.40;;
67930;SDS011;63902;52.000;5.954;2024-01-06T04:51:16;15.07;;;9.55;;
67930;SDS011;63902;52.000;5.954;2024-01-06T04:52:16;18.63;;;9.60;;
67930;SDS011;63902;52.000;5.954;2024-01-06T04:53:17;15.75;;;9.43;;
67930;SDS011;63902;52.000;5.954;2024-01-06T04:54:19;14.52;;;8.88;;
67930;SDS011;63902;52.000;5.954;2024-01-06T04:55:19;16.70;;;9.25;;
67930;SDS011;63902;52.000;5.954;2024-01-06T04:56:20;15.95;;;9.05;;
67930;SDS011;63902;52.000;5.954;2024-01-06T04:57:20;17.27;;;9.15;;
67930;SDS011;63902;52.000;5.954;2024-01-06T04:58:20;17.58;;;9.27;;
67930;SDS011;63902;52.000;5.954;2024-01-06T04:59:21;15.73;;;9.05;;
67930;SDS011;63902;52.000;5.954;2024-01-06T05:00:21;16.23;;;9.07;;
67930;SDS011;63902;52.000;5.954;2024-01-06T05:01:22;19.05;;;9.82;;
67930;SDS011;63902;52.000;5.954;2024-01-06T05:02:22;16.98;;;9.68;;
67930;SDS011;63902;52.000;5.954;2024-01-06T05:03:23;18.60;;;10.05;;
67930;SDS011;63902;52.000;5.954;2024-01-06T05:04:23;17.20;;;9.27;;
67930;SDS011;63902;52.000;5.954;2024-01-06T05:05:24;18.33;;;9.90;;
67930;SDS011;63902;52.000;5.954;2024-01-06T05:06:24;13.55;;;8.40;;
67930;SDS011;63902;52.000;5.954;2024-01-06T05:07:25;17.20;;;9.77;;
67930;SDS011;63902;52.000;5.954;2024-01-06T05:08:25;15.60;;;9.07;;
67930;SDS011;63902;52.000;5.954;2024-01-06T05:09:27;17.70;;;9.52;;
67930;SDS011;63902;52.000;5.954;2024-01-06T05:10:28;15.32;;;9.25;;
67930;SDS011;63902;52.000;5.954;2024-01-06T05:11:28;17.88;;;9.48;;
67930;SDS011;63902;52.000;5.954;2024-01-06T05:12:29;16.33;;;9.30;;
67930;SDS011;63902;52.000;5.954;2024-01-06T05:13:29;17.50;;;9.02;;
67930;SDS011;63902;52.000;5.954;2024-01-06T05:14:29;13.27;;;8.38;;
67930;SDS011;63902;52.000;5.954;2024-01-06T05:15:30;13.18;;;8.10;;
67930;SDS011;63902;52.000;5.954;2024-01-06T05:16:30;16.88;;;8.98;;
67930;SDS011;63902;52.000;5.954;2024-01-06T05:17:31;13.77;;;8.27;;
67930;SDS011;63902;52.000;5.954;2024-01-06T05:18:31;17.50;;;10.05;;
67930;SDS011;63902;52.000;5.954;2024-01-06T05:19:32;15.55;;;8.20;;
67930;SDS011;63902;52.000;5.954;2024-01-06T05:20:32;15.82;;;8.85;;
67930;SDS011;63902;52.000;5.954;2024-01-06T05:21:33;15.60;;;8.70;;
67930;SDS011;63902;52.000;5.954;2024-01-06T05:22:34;16.75;;;9.20;;
67930;SDS011;63902;52.000;5.954;2024-01-06T05:23:35;17.02;;;8.88;;
67930;SDS011;63902;52.000;5.954;2024-01-06T05:24:36;17.25;;;8.45;;
67930;SDS011;63902;52.000;5.954;2024-01-06T05:25:37;18.77;;;9.48;;
67930;SDS011;63902;52.000;5.954;2024-01-06T05:26:37;15.70;;;9.30;;
67930;SDS011;63902;52.000;5.954;2024-01-06T05:27:38;18.95;;;8.75;;
67930;SDS011;63902;52.000;5.954;2024-01-06T05:28:38;17.40;;;8.88;;
67930;SDS011;63902;52.000;5.954;2024-01-06T05:29:39;18.27;;;9.73;;
67930;SDS011;63902;52.000;5.954;2024-01-06T05:30:39;15.48;;;8.77;;
67930;SDS011;63902;52.000;5.954;2024-01-06T05:31:40;13.35;;;8.48;;
67930;SDS011;63902;52.000;5.954;2024-01-06T05:32:40;15.90;;;9.25;;
67930;SDS011;63902;52.000;5.954;2024-01-06T05:33:41;15.35;;;8.68;;
67930;SDS011;63902;52.000;5.954;2024-01-06T05:34:41;15.93;;;8.05;;
67930;SDS011;63902;52.000;5.954;2024-01-06T05:35:41;15.55;;;8.90;;
67930;SDS011;63902;52.000;5.954;2024-01-06T05:36:42;17.25;;;9.30;;
67930;SDS011;63902;52.000;5.954;2024-01-06T05:37:42;16.92;;;9.80;;
67930;SDS011;63902;52.000;5.954;2024-01-06T05:38:43;15.65;;;9.00;;
67930;SDS011;63902;52.000;5.954;2024-01-06T05:39:45;19.42;;;10.40;;
67930;SDS011;63902;52.000;5.954;2024-01-06T05:40:45;15.30;;;9.55;;
67930;SDS011;63902;52.000;5.954;2024-01-06T05:41:46;16.90;;;9.80;;
67930;SDS011;63902;52.000;5.954;2024-01-06T05:42:46;15.05;;;8.93;;
67930;SDS011;63902;52.000;5.954;2024-01-06T05:43:46;17.08;;;9.10;;
67930;SDS011;63902;52.000;5.954;2024-01-06T05:44:47;16.80;;;9.23;;
67930;SDS011;63902;52.000;5.954;2024-01-06T05:45:47;16.20;;;10.23;;
67930;SDS011;63902;52.000;5.954;2024-01-06T05:46:48;17.17;;;8.52;;
67930;SDS011;63902;52.000;5.954;2024-01-06T05:47:48;16.90;;;9.35;;
67930;SDS011;63902;52.000;5.954;2024-01-06T05:48:49;17.85;;;8.95;;
67930;SDS011;63902;52.000;5.954;2024-01-06T05:49:49;15.85;;;9.32;;
67930;SDS011;63902;52.000;5.954;2024-01-06T05:50:50;15.27;;;9.32;;
67930;SDS011;63902;52.000;5.954;2024-01-06T05:51:51;15.45;;;8.98;;
67930;SDS011;63902;52.000;5.954;2024-01-06T05:52:51;16.08;;;9.30;;
67930;SDS011;63902;52.000;5.954;2024-01-06T05:53:52;15.77;;;9.35;;
67930;SDS011;63902;52.000;5.954;2024-01-06T05:54:53;16.45;;;9.35;;
67930;SDS011;63902;52.000;5.954;2024-01-06T05:55:54;15.07;;;9.25;;
67930;SDS011;63902;52.000;5.954;2024-01-06T05:56:55;18.27;;;10.10;;
67930;SDS011;63902;52.000;5.954;2024-01-06T05:57:56;21.45;;;10.10;;
67930;SDS011;63902;52.000;5.954;2024-01-06T05:58:56;17.63;;;9.43;;
67930;SDS011;63902;52.000;5.954;2024-01-06T05:59:56;16.17;;;9.15;;